^^
Saratoga-Weather Station Historical Data
Daily Summary for January 23, 2021 Units:  Both    English   Metric
Daily Weekly Monthly Yearly Custom
  High: Low: Average:
Temperature: 42.3 °F /  5.7 °C 35.1 °F /  1.7 °C 38.8 °F /  3.8 °C
Dew Point: 38.3 °F /  3.5 °C 33.8 °F /  1 °C 36.5 °F /  2.5 °C
Humidity: 96% 82% 92%
Wind Speed: 7mph /  11.3km/h - 1.6mph /  2.6km/h
Wind Gust: 10mph /  16.1km/h - -
Wind- - South
Pressure: 29.5 in /  999.0 hPa 29.3 in /  990.9 hPa -
Precipitation: 0.23 in /  5.8 mm    
Historical Graphs
 
 
Tabular Data for January 23, 2021
Time Temperature Dew Point Pressure Wind Wind Speed Wind Gust Humidity Rainfall Rate (Hourly) solar
00:03 38.1 °F /  3.4 °C 35.4 °F /  1.9 °C 29.5in /  998.3hPa West 6.9mph /  11.1km/h 7mph /  11.3km/h 90% 0in /  0.0mm 0 W/m2
00:08 38.1 °F /  3.4 °C 35.4 °F /  1.9 °C 29.5in /  998.3hPa WSW 2.9mph /  4.7km/h 7mph /  11.3km/h 90% 0in /  0.0mm 0 W/m2
00:13 37.9 °F /  3.3 °C 35.2 °F /  1.8 °C 29.5in /  998.6hPa WNW 2.9mph /  4.7km/h 8mph /  12.9km/h 90% 0in /  0.0mm 0 W/m2
00:18 37.9 °F /  3.3 °C 35.2 °F /  1.8 °C 29.5in /  998.6hPa West 2.9mph /  4.7km/h 7mph /  11.3km/h 90% 0in /  0.0mm 0 W/m2
00:23 37.8 °F /  3.2 °C 35.1 °F /  1.7 °C 29.5in /  998.6hPa West 4mph /  6.4km/h 8mph /  12.9km/h 90% 0in /  0.0mm 0 W/m2
00:28 37.8 °F /  3.2 °C 35.4 °F /  1.9 °C 29.5in /  998.6hPa West 0.9mph /  1.4km/h 3mph /  4.8km/h 91% 0in /  0.0mm 0 W/m2
00:33 37.6 °F /  3.1 °C 35.2 °F /  1.8 °C 29.5in /  998.6hPa West 0.9mph /  1.4km/h 4mph /  6.4km/h 91% 0in /  0.0mm 0 W/m2
00:38 37.6 °F /  3.1 °C 35.2 °F /  1.8 °C 29.5in /  998.6hPa NW 4mph /  6.4km/h 4mph /  6.4km/h 91% 0in /  0.0mm 0 W/m2
00:43 37.4 °F /  3 °C 35.1 °F /  1.7 °C 29.5in /  998.6hPa WSW 2mph /  3.2km/h 4mph /  6.4km/h 91% 0in /  0.0mm 0 W/m2
00:48 37.4 °F /  3 °C 35.1 °F /  1.7 °C 29.5in /  998.6hPa Calm   3mph /  4.8km/h 91% 0in /  0.0mm 0 W/m2
00:53 37.2 °F /  2.9 °C 34.9 °F /  1.6 °C 29.5in /  998.6hPa WSW 2.9mph /  4.7km/h 4mph /  6.4km/h 91% 0in /  0.0mm 0 W/m2
00:58 37.2 °F /  2.9 °C 35.1 °F /  1.7 °C 29.5in /  998.6hPa WNW 2mph /  3.2km/h 4mph /  6.4km/h 92% 0in /  0.0mm 0 W/m2
01:03 37.2 °F /  2.9 °C 35.1 °F /  1.7 °C 29.5in /  998.6hPa West 2mph /  3.2km/h 3mph /  4.8km/h 92% 0in /  0.0mm 0 W/m2
01:08 37.2 °F /  2.9 °C 35.1 °F /  1.7 °C 29.5in /  998.6hPa NNW 0.9mph /  1.4km/h 4mph /  6.4km/h 92% 0in /  0.0mm 0 W/m2
01:13 37.2 °F /  2.9 °C 35.1 °F /  1.7 °C 29.5in /  998.6hPa WSW 0.9mph /  1.4km/h 2mph /  3.2km/h 92% 0in /  0.0mm 0 W/m2
01:18 37.2 °F /  2.9 °C 35.1 °F /  1.7 °C 29.5in /  998.6hPa West 0.9mph /  1.4km/h 3mph /  4.8km/h 92% 0in /  0.0mm 0 W/m2
01:23 37.2 °F /  2.9 °C 35.1 °F /  1.7 °C 29.5in /  998.6hPa West 4mph /  6.4km/h 4mph /  6.4km/h 92% 0in /  0.0mm 0 W/m2
01:28 37.2 °F /  2.9 °C 35.4 °F /  1.9 °C 29.5in /  998.6hPa West 6mph /  9.7km/h 6mph /  9.7km/h 93% 0in /  0.0mm 0 W/m2
01:33 37.2 °F /  2.9 °C 35.4 °F /  1.9 °C 29.5in /  998.6hPa West 2mph /  3.2km/h 3mph /  4.8km/h 93% 0in /  0.0mm 0 W/m2
01:38 37 °F /  2.8 °C 35.2 °F /  1.8 °C 29.5in /  998.6hPa WNW 6mph /  9.7km/h 6mph /  9.7km/h 93% 0in /  0.0mm 0 W/m2
01:43 37 °F /  2.8 °C 35.2 °F /  1.8 °C 29.5in /  998.6hPa West 4mph /  6.4km/h 4mph /  6.4km/h 93% 0in /  0.0mm 0 W/m2
01:48 37 °F /  2.8 °C 35.2 °F /  1.8 °C 29.5in /  998.6hPa South 0.9mph /  1.4km/h 4mph /  6.4km/h 93% 0in /  0.0mm 0 W/m2
01:53 37 °F /  2.8 °C 35.2 °F /  1.8 °C 29.5in /  998.6hPa Calm   1mph /  1.6km/h 93% 0in /  0.0mm 0 W/m2
01:58 37.2 °F /  2.9 °C 35.4 °F /  1.9 °C 29.5in /  998.6hPa East 0.9mph /  1.4km/h 4mph /  6.4km/h 93% 0in /  0.0mm 0 W/m2
02:03 37.2 °F /  2.9 °C 35.6 °F /  2 °C 29.5in /  998.6hPa Calm   4mph /  6.4km/h 94% 0in /  0.0mm 0 W/m2
02:08 37.6 °F /  3.1 °C 36 °F /  2.2 °C 29.5in /  998.6hPa South 0.9mph /  1.4km/h 3mph /  4.8km/h 94% 0in /  0.0mm 0 W/m2
02:13 37.6 °F /  3.1 °C 36 °F /  2.2 °C 29.5in /  998.6hPa ESE 0.9mph /  1.4km/h 3mph /  4.8km/h 94% 0in /  0.0mm 0 W/m2
02:18 37.8 °F /  3.2 °C 36.1 °F /  2.3 °C 29.5in /  998.6hPa SE 0.9mph /  1.4km/h 3mph /  4.8km/h 94% 0in /  0.0mm 0 W/m2
02:23 37.8 °F /  3.2 °C 36.1 °F /  2.3 °C 29.5in /  998.6hPa Calm   2mph /  3.2km/h 94% 0in /  0.0mm 0 W/m2
02:28 37.8 °F /  3.2 °C 36.1 °F /  2.3 °C 29.5in /  998.6hPa East 2.9mph /  4.7km/h 4mph /  6.4km/h 94% 0in /  0.0mm 0 W/m2
02:33 37.9 °F /  3.3 °C 36.3 °F /  2.4 °C 29.5in /  998.6hPa Calm   2mph /  3.2km/h 94% 0in /  0.0mm 0 W/m2
02:38 37.9 °F /  3.3 °C 36.3 °F /  2.4 °C 29.5in /  998.6hPa East 2mph /  3.2km/h 2mph /  3.2km/h 94% 0in /  0.0mm 0 W/m2
02:43 37.9 °F /  3.3 °C 36.3 °F /  2.4 °C 29.5in /  998.6hPa Calm   1mph /  1.6km/h 94% 0in /  0.0mm 0 W/m2
02:48 37.9 °F /  3.3 °C 36.3 °F /  2.4 °C 29.5in /  998.6hPa Calm   1mph /  1.6km/h 94% 0in /  0.0mm 0 W/m2
02:53 38.1 °F /  3.4 °C 36.5 °F /  2.5 °C 29.5in /  999.0hPa North 0.9mph /  1.4km/h 4mph /  6.4km/h 94% 0in /  0.0mm 0 W/m2
02:58 38.3 °F /  3.5 °C 36.7 °F /  2.6 °C 29.5in /  999.0hPa NW 0.9mph /  1.4km/h 2mph /  3.2km/h 94% 0in /  0.0mm 0 W/m2
03:03 38.5 °F /  3.6 °C 36.9 °F /  2.7 °C 29.5in /  999.0hPa Calm   4mph /  6.4km/h 94% 0in /  0.0mm 0 W/m2
03:08 38.5 °F /  3.6 °C 36.9 °F /  2.7 °C 29.5in /  999.0hPa Calm   2mph /  3.2km/h 94% 0in /  0.0mm 0 W/m2
03:13 38.5 °F /  3.6 °C 36.9 °F /  2.7 °C 29.5in /  999.0hPa Calm     94% 0in /  0.0mm 0 W/m2
03:18 38.5 °F /  3.6 °C 36.9 °F /  2.7 °C 29.5in /  999.0hPa Calm   1mph /  1.6km/h 94% 0in /  0.0mm 0 W/m2
03:23 38.7 °F /  3.7 °C 37 °F /  2.8 °C 29.5in /  999.0hPa Calm   3mph /  4.8km/h 94% 0in /  0.0mm 0 W/m2
03:28 38.7 °F /  3.7 °C 37 °F /  2.8 °C 29.5in /  998.6hPa Calm   2mph /  3.2km/h 94% 0in /  0.0mm 0 W/m2
03:33 38.7 °F /  3.7 °C 37 °F /  2.8 °C 29.5in /  998.6hPa Calm   1mph /  1.6km/h 94% 0in /  0.0mm 0 W/m2
03:38 38.7 °F /  3.7 °C 37 °F /  2.8 °C 29.5in /  998.6hPa NW 2mph /  3.2km/h 3mph /  4.8km/h 94% 0in /  0.0mm 0 W/m2
03:43 38.7 °F /  3.7 °C 37 °F /  2.8 °C 29.5in /  998.6hPa ENE 2mph /  3.2km/h 2mph /  3.2km/h 94% 0in /  0.0mm 0 W/m2
03:49 38.8 °F /  3.8 °C 37.2 °F /  2.9 °C 29.5in /  998.6hPa East 0.9mph /  1.4km/h 3mph /  4.8km/h 94% 0in /  0.0mm 0 W/m2
03:54 38.8 °F /  3.8 °C 37 °F /  2.8 °C 29.5in /  998.6hPa Calm   1mph /  1.6km/h 93% 0in /  0.0mm 0 W/m2
03:59 38.8 °F /  3.8 °C 37.2 °F /  2.9 °C 29.5in /  998.6hPa NNW 0.9mph /  1.4km/h 3mph /  4.8km/h 94% 0in /  0.0mm 0 W/m2
04:04 38.8 °F /  3.8 °C 37 °F /  2.8 °C 29.5in /  998.6hPa Calm   1mph /  1.6km/h 93% 0in /  0.0mm 0 W/m2
04:09 38.8 °F /  3.8 °C 37 °F /  2.8 °C 29.5in /  998.6hPa Calm   1mph /  1.6km/h 93% 0in /  0.0mm 0 W/m2
04:14 39 °F /  3.9 °C 37.2 °F /  2.9 °C 29.5in /  998.6hPa NNW 0.9mph /  1.4km/h 4mph /  6.4km/h 93% 0in /  0.0mm 0 W/m2
04:19 39 °F /  3.9 °C 37.2 °F /  2.9 °C 29.5in /  998.6hPa East 2mph /  3.2km/h 5mph /  8km/h 93% 0in /  0.0mm 0 W/m2
04:24 39 °F /  3.9 °C 37.2 °F /  2.9 °C 29.5in /  998.6hPa Calm   1mph /  1.6km/h 93% 0in /  0.0mm 0 W/m2
04:29 39 °F /  3.9 °C 37.2 °F /  2.9 °C 29.5in /  998.6hPa East 0.9mph /  1.4km/h 2mph /  3.2km/h 93% 0in /  0.0mm 0 W/m2
04:34 39.2 °F /  4 °C 37.4 °F /  3 °C 29.5in /  998.6hPa East 2mph /  3.2km/h 3mph /  4.8km/h 93% 0in /  0.0mm 0 W/m2
04:39 39.2 °F /  4 °C 37.4 °F /  3 °C 29.5in /  998.6hPa Calm   2mph /  3.2km/h 93% 0in /  0.0mm 0 W/m2
04:44 39.2 °F /  4 °C 37.4 °F /  3 °C 29.5in /  998.6hPa NE 0.9mph /  1.4km/h 1mph /  1.6km/h 93% 0in /  0.0mm 0 W/m2
04:49 39.4 °F /  4.1 °C 37.6 °F /  3.1 °C 29.5in /  998.6hPa NNW 0.9mph /  1.4km/h 3mph /  4.8km/h 93% 0in /  0.0mm 0 W/m2
04:54 39.4 °F /  4.1 °C 37.6 °F /  3.1 °C 29.5in /  998.6hPa Calm   2mph /  3.2km/h 93% 0in /  0.0mm 0 W/m2
04:59 39.4 °F /  4.1 °C 37.6 °F /  3.1 °C 29.5in /  998.6hPa NE 0.9mph /  1.4km/h 2mph /  3.2km/h 93% 0in /  0.0mm 0 W/m2
05:04 39.4 °F /  4.1 °C 37.6 °F /  3.1 °C 29.5in /  998.6hPa NE 0.9mph /  1.4km/h 1mph /  1.6km/h 93% 0in /  0.0mm 0 W/m2
05:09 39.4 °F /  4.1 °C 37.6 °F /  3.1 °C 29.5in /  998.6hPa Calm   2mph /  3.2km/h 93% 0in /  0.0mm 0 W/m2
05:14 39.4 °F /  4.1 °C 37.6 °F /  3.1 °C 29.5in /  998.6hPa Calm   4mph /  6.4km/h 93% 0in /  0.0mm 0 W/m2
05:19 39.4 °F /  4.1 °C 37.6 °F /  3.1 °C 29.5in /  998.6hPa North 2mph /  3.2km/h 2mph /  3.2km/h 93% 0in /  0.0mm 0 W/m2
05:24 39.6 °F /  4.2 °C 37.8 °F /  3.2 °C 29.5in /  998.3hPa West 0.9mph /  1.4km/h 4mph /  6.4km/h 93% 0in /  0.0mm 0 W/m2
05:29 39.6 °F /  4.2 °C 37.8 °F /  3.2 °C 29.5in /  998.3hPa Calm   3mph /  4.8km/h 93% 0in /  0.0mm 0 W/m2
05:34 39.6 °F /  4.2 °C 37.8 °F /  3.2 °C 29.5in /  998.3hPa North 2.9mph /  4.7km/h 4mph /  6.4km/h 93% 0in /  0.0mm 0 W/m2
05:39 39.6 °F /  4.2 °C 37.8 °F /  3.2 °C 29.5in /  998.0hPa NNE 2mph /  3.2km/h 5mph /  8km/h 93% 0in /  0.0mm 0 W/m2
05:44 39.7 °F /  4.3 °C 37.9 °F /  3.3 °C 29.5in /  998.0hPa WNW 2mph /  3.2km/h 2mph /  3.2km/h 93% 0in /  0.0mm 0 W/m2
05:49 39.7 °F /  4.3 °C 37.9 °F /  3.3 °C 29.5in /  998.0hPa NW 2.9mph /  4.7km/h 7mph /  11.3km/h 93% 0in /  0.0mm 0 W/m2
05:54 39.7 °F /  4.3 °C 37.9 °F /  3.3 °C 29.5in /  997.6hPa East 2.9mph /  4.7km/h 5mph /  8km/h 93% 0in /  0.0mm 0 W/m2
05:59 39.7 °F /  4.3 °C 37.9 °F /  3.3 °C 29.5in /  998.0hPa North 4.9mph /  7.9km/h 7mph /  11.3km/h 93% 0in /  0.0mm 0 W/m2
06:04 39.9 °F /  4.4 °C 38.1 °F /  3.4 °C 29.5in /  998.0hPa NNW 2mph /  3.2km/h 5mph /  8km/h 93% 0in /  0.0mm 0 W/m2
06:09 39.9 °F /  4.4 °C 38.1 °F /  3.4 °C 29.5in /  998.0hPa North 2mph /  3.2km/h 4mph /  6.4km/h 93% 0in /  0.0mm 0 W/m2
06:14 39.9 °F /  4.4 °C 38.1 °F /  3.4 °C 29.5in /  998.0hPa West 0.9mph /  1.4km/h 2mph /  3.2km/h 93% 0in /  0.0mm 0 W/m2
06:19 39.9 °F /  4.4 °C 38.1 °F /  3.4 °C 29.5in /  998.0hPa NNE 2.9mph /  4.7km/h 4mph /  6.4km/h 93% 0in /  0.0mm 0 W/m2
06:24 39.9 °F /  4.4 °C 38.1 °F /  3.4 °C 29.5in /  998.0hPa NW 2.9mph /  4.7km/h 3mph /  4.8km/h 93% 0in /  0.0mm 0 W/m2
06:29 39.9 °F /  4.4 °C 37.8 °F /  3.2 °C 29.5in /  998.0hPa WNW 2mph /  3.2km/h 3mph /  4.8km/h 92% 0in /  0.0mm 0 W/m2
06:34 39.9 °F /  4.4 °C 37.8 °F /  3.2 °C 29.5in /  998.0hPa NNE 2mph /  3.2km/h 4mph /  6.4km/h 92% 0in /  0.0mm 0 W/m2
06:39 39.9 °F /  4.4 °C 37.8 °F /  3.2 °C 29.5in /  998.0hPa West 6.9mph /  11.1km/h 7mph /  11.3km/h 92% 0in /  0.0mm 0 W/m2
06:44 39.9 °F /  4.4 °C 37.8 °F /  3.2 °C 29.5in /  998.0hPa WNW 2mph /  3.2km/h 4mph /  6.4km/h 92% 0in /  0.0mm 0 W/m2
06:49 39.9 °F /  4.4 °C 37.8 °F /  3.2 °C 29.5in /  998.0hPa NNE 7mph /  11.3km/h 7mph /  11.3km/h 92% 0in /  0.0mm 0 W/m2
06:54 39.9 °F /  4.4 °C 37.8 °F /  3.2 °C 29.5in /  998.0hPa SSE 0.9mph /  1.4km/h 4mph /  6.4km/h 92% 0in /  0.0mm 0 W/m2
06:59 39.9 °F /  4.4 °C 37.8 °F /  3.2 °C 29.5in /  998.0hPa WNW 0.9mph /  1.4km/h 3mph /  4.8km/h 92% 0in /  0.0mm 0 W/m2
07:04 39.9 °F /  4.4 °C 37.8 °F /  3.2 °C 29.5in /  998.0hPa WNW 4mph /  6.4km/h 5mph /  8km/h 92% 0in /  0.0mm 0 W/m2
07:09 39.9 °F /  4.4 °C 37.8 °F /  3.2 °C 29.5in /  998.0hPa NW 2.9mph /  4.7km/h 3mph /  4.8km/h 92% 0in /  0.0mm 0 W/m2
07:14 39.9 °F /  4.4 °C 37.8 °F /  3.2 °C 29.5in /  998.0hPa NW 4mph /  6.4km/h 4mph /  6.4km/h 92% 0in /  0.0mm 0 W/m2
07:19 39.9 °F /  4.4 °C 37.8 °F /  3.2 °C 29.5in /  998.0hPa Calm     92% 0in /  0.0mm 0 W/m2
07:24 39.9 °F /  4.4 °C 37.8 °F /  3.2 °C 29.5in /  998.0hPa SSW 6.9mph /  11.1km/h 7mph /  11.3km/h 92% 0in /  0.0mm 0 W/m2
07:29 39.9 °F /  4.4 °C 37.8 °F /  3.2 °C 29.5in /  998.0hPa NW 0.9mph /  1.4km/h 3mph /  4.8km/h 92% 0in /  0.0mm 0 W/m2
07:34 39.9 °F /  4.4 °C 37.8 °F /  3.2 °C 29.5in /  998.0hPa WSW 2mph /  3.2km/h 7mph /  11.3km/h 92% 0in /  0.0mm 0 W/m2
07:39 39.9 °F /  4.4 °C 37.8 °F /  3.2 °C 29.5in /  998.0hPa WNW 2mph /  3.2km/h 4mph /  6.4km/h 92% 0in /  0.0mm 0 W/m2
07:44 39.9 °F /  4.4 °C 37.8 °F /  3.2 °C 29.5in /  998.0hPa North 0.9mph /  1.4km/h 2mph /  3.2km/h 92% 0in /  0.0mm 0 W/m2
07:49 39.7 °F /  4.3 °C 37.6 °F /  3.1 °C 29.5in /  998.0hPa North 2.9mph /  4.7km/h 3mph /  4.8km/h 92% 0in /  0.0mm 0 W/m2
07:54 39.7 °F /  4.3 °C 37.6 °F /  3.1 °C 29.5in /  998.0hPa SE 2mph /  3.2km/h 4mph /  6.4km/h 92% 0in /  0.0mm 0 W/m2
07:59 39.7 °F /  4.3 °C 37.6 °F /  3.1 °C 29.5in /  998.0hPa West 0.9mph /  1.4km/h 3mph /  4.8km/h 92% 0in /  0.0mm 0 W/m2
08:04 39.7 °F /  4.3 °C 37.6 °F /  3.1 °C 29.5in /  998.0hPa NW 0.9mph /  1.4km/h 3mph /  4.8km/h 92% 0in /  0.0mm 0 W/m2
08:09 39.7 °F /  4.3 °C 37.6 °F /  3.1 °C 29.5in /  998.0hPa SW 2mph /  3.2km/h 5mph /  8km/h 92% 0in /  0.0mm 0 W/m2
08:14 39.7 °F /  4.3 °C 37.6 °F /  3.1 °C 29.5in /  997.6hPa NW 2.9mph /  4.7km/h 8mph /  12.9km/h 92% 0in /  0.0mm 0 W/m2
08:19 39.7 °F /  4.3 °C 37.6 °F /  3.1 °C 29.5in /  997.6hPa NW 2.9mph /  4.7km/h 4mph /  6.4km/h 92% 0in /  0.0mm 0 W/m2
08:24 39.7 °F /  4.3 °C 37.6 °F /  3.1 °C 29.5in /  998.0hPa Calm   1mph /  1.6km/h 92% 0in /  0.0mm 0 W/m2
08:29 39.7 °F /  4.3 °C 37.6 °F /  3.1 °C 29.5in /  997.6hPa NNE 0.9mph /  1.4km/h 2mph /  3.2km/h 92% 0in /  0.0mm 0 W/m2
08:34 39.6 °F /  4.2 °C 37.4 °F /  3 °C 29.5in /  997.6hPa WSW 2mph /  3.2km/h 2mph /  3.2km/h 92% 0in /  0.0mm 0 W/m2
08:39 39.6 °F /  4.2 °C 37.4 °F /  3 °C 29.5in /  997.6hPa Calm   3mph /  4.8km/h 92% 0in /  0.0mm 0 W/m2
08:44 39.6 °F /  4.2 °C 37.4 °F /  3 °C 29.5in /  997.6hPa West 2.9mph /  4.7km/h 4mph /  6.4km/h 92% 0in /  0.0mm 0 W/m2
08:49 39.6 °F /  4.2 °C 37.4 °F /  3 °C 29.5in /  997.6hPa WNW 0.9mph /  1.4km/h 6mph /  9.7km/h 92% 0in /  0.0mm 0 W/m2
08:54 39.6 °F /  4.2 °C 37.4 °F /  3 °C 29.5in /  997.6hPa NW 2.9mph /  4.7km/h 3mph /  4.8km/h 92% 0in /  0.0mm 0 W/m2
08:59 39.6 °F /  4.2 °C 37.8 °F /  3.2 °C 29.5in /  998.0hPa NNW 2.9mph /  4.7km/h 6mph /  9.7km/h 93% 0in /  0.0mm 0 W/m2
09:04 39.4 °F /  4.1 °C 37.6 °F /  3.1 °C 29.5in /  997.6hPa NW 0.9mph /  1.4km/h 5mph /  8km/h 93% 0in /  0.0mm 0 W/m2
09:09 39.4 °F /  4.1 °C 37.6 °F /  3.1 °C 29.5in /  998.0hPa NW 2mph /  3.2km/h 6mph /  9.7km/h 93% 0in /  0.0mm 0 W/m2
09:14 39.4 °F /  4.1 °C 37.6 °F /  3.1 °C 29.5in /  997.6hPa NW 2mph /  3.2km/h 2mph /  3.2km/h 93% 0in /  0.0mm 5 W/m2
09:19 39.4 °F /  4.1 °C 37.6 °F /  3.1 °C 29.5in /  997.6hPa Calm   4mph /  6.4km/h 93% 0in /  0.0mm 5 W/m2
09:24 39.4 °F /  4.1 °C 37.2 °F /  2.9 °C 29.5in /  997.6hPa NNW 2mph /  3.2km/h 2mph /  3.2km/h 92% 0in /  0.0mm 7 W/m2
09:29 39.4 °F /  4.1 °C 37.2 °F /  2.9 °C 29.5in /  997.6hPa ENE 0.9mph /  1.4km/h 4mph /  6.4km/h 92% 0in /  0.0mm 9 W/m2
09:34 39.4 °F /  4.1 °C 37.2 °F /  2.9 °C 29.5in /  997.6hPa NNW 2mph /  3.2km/h 4mph /  6.4km/h 92% 0in /  0.0mm 16 W/m2
09:39 39.4 °F /  4.1 °C 37.2 °F /  2.9 °C 29.5in /  997.3hPa NW 2.9mph /  4.7km/h 3mph /  4.8km/h 92% 0in /  0.0mm 19 W/m2
09:44 39.4 °F /  4.1 °C 37.2 °F /  2.9 °C 29.5in /  997.3hPa NNW 0.9mph /  1.4km/h 4mph /  6.4km/h 92% 0in /  0.0mm 21 W/m2
09:49 39.6 °F /  4.2 °C 37.4 °F /  3 °C 29.5in /  997.3hPa Calm   2mph /  3.2km/h 92% 0in /  0.0mm 35 W/m2
09:54 39.6 °F /  4.2 °C 37.4 °F /  3 °C 29.5in /  997.3hPa NNW 0.9mph /  1.4km/h 3mph /  4.8km/h 92% 0in /  0.0mm 51 W/m2
09:59 39.6 °F /  4.2 °C 37.4 °F /  3 °C 29.5in /  997.3hPa Calm   3mph /  4.8km/h 92% 0in /  0.0mm 54 W/m2
10:07 39.7 °F /  4.3 °C 37.4 °F /  3 °C 29.4in /  997.0hPa NW 0.9mph /  1.4km/h 2mph /  3.2km/h 91% 0in /  0.0mm 74 W/m2
10:12 39.7 °F /  4.3 °C 37.4 °F /  3 °C 29.4in /  997.0hPa ESE 2.9mph /  4.7km/h 4mph /  6.4km/h 91% 0in /  0.0mm 84 W/m2
10:17 39.9 °F /  4.4 °C 37.6 °F /  3.1 °C 29.4in /  997.0hPa SE 2.9mph /  4.7km/h 3mph /  4.8km/h 91% 0in /  0.0mm 69 W/m2
10:22 39.9 °F /  4.4 °C 37.6 °F /  3.1 °C 29.4in /  997.0hPa East 2mph /  3.2km/h 4mph /  6.4km/h 91% 0in /  0.0mm 91 W/m2
10:27 40.1 °F /  4.5 °C 37.8 °F /  3.2 °C 29.4in /  997.0hPa Calm   1mph /  1.6km/h 91% 0in /  0.0mm 77 W/m2
10:32 40.3 °F /  4.6 °C 37.9 °F /  3.3 °C 29.4in /  997.0hPa NNE 2mph /  3.2km/h 4mph /  6.4km/h 91% 0in /  0.0mm 83 W/m2
10:37 40.5 °F /  4.7 °C 37.8 °F /  3.2 °C 29.4in /  997.0hPa ENE 2mph /  3.2km/h 5mph /  8km/h 90% 0in /  0.0mm 104 W/m2
10:42 40.5 °F /  4.7 °C 37.8 °F /  3.2 °C 29.4in /  996.6hPa NNE 0.9mph /  1.4km/h 2mph /  3.2km/h 90% 0in /  0.0mm 90 W/m2
10:47 40.6 °F /  4.8 °C 37.6 °F /  3.1 °C 29.4in /  996.6hPa WSW 0.9mph /  1.4km/h 4mph /  6.4km/h 89% 0in /  0.0mm 120 W/m2
10:52 40.6 °F /  4.8 °C 37.6 °F /  3.1 °C 29.4in /  996.6hPa Calm   1mph /  1.6km/h 89% 0in /  0.0mm 156 W/m2
10:57 41 °F /  5 °C 37.9 °F /  3.3 °C 29.4in /  996.3hPa Calm   5mph /  8km/h 89% 0in /  0.0mm 179 W/m2
11:02 41.4 °F /  5.2 °C 38.3 °F /  3.5 °C 29.4in /  996.3hPa SE 2mph /  3.2km/h 5mph /  8km/h 89% 0in /  0.0mm 169 W/m2
11:07 41.5 °F /  5.3 °C 38.3 °F /  3.5 °C 29.4in /  996.3hPa Calm   2mph /  3.2km/h 88% 0in /  0.0mm 120 W/m2
11:12 41.5 °F /  5.3 °C 38.3 °F /  3.5 °C 29.4in /  996.3hPa Calm   2mph /  3.2km/h 88% 0in /  0.0mm 114 W/m2
11:17 41.7 °F /  5.4 °C 38.1 °F /  3.4 °C 29.4in /  996.3hPa North 0.9mph /  1.4km/h 3mph /  4.8km/h 87% 0in /  0.0mm 169 W/m2
11:22 41.7 °F /  5.4 °C 37.8 °F /  3.2 °C 29.4in /  996.3hPa West 0.9mph /  1.4km/h 3mph /  4.8km/h 86% 0in /  0.0mm 148 W/m2
11:27 41.9 °F /  5.5 °C 37.9 °F /  3.3 °C 29.4in /  995.9hPa ENE 0.9mph /  1.4km/h 2mph /  3.2km/h 86% 0in /  0.0mm 181 W/m2
11:32 42.1 °F /  5.6 °C 37.9 °F /  3.3 °C 29.4in /  995.9hPa Calm   6mph /  9.7km/h 85% 0in /  0.0mm 158 W/m2
11:37 42.3 °F /  5.7 °C 38.1 °F /  3.4 °C 29.4in /  995.9hPa Calm   3mph /  4.8km/h 85% 0in /  0.0mm 130 W/m2
11:42 42.3 °F /  5.7 °C 37.8 °F /  3.2 °C 29.4in /  995.9hPa East 2mph /  3.2km/h 7mph /  11.3km/h 84% 0in /  0.0mm 113 W/m2
11:47 42.3 °F /  5.7 °C 37.8 °F /  3.2 °C 29.4in /  995.9hPa North 0.9mph /  1.4km/h 3mph /  4.8km/h 84% 0in /  0.0mm 132 W/m2
11:52 42.3 °F /  5.7 °C 37.8 °F /  3.2 °C 29.4in /  995.6hPa East 2mph /  3.2km/h 6mph /  9.7km/h 84% 0in /  0.0mm 137 W/m2
11:57 42.3 °F /  5.7 °C 37.4 °F /  3 °C 29.4in /  995.6hPa East 2.9mph /  4.7km/h 4mph /  6.4km/h 83% 0in /  0.0mm 132 W/m2
12:02 42.3 °F /  5.7 °C 37.2 °F /  2.9 °C 29.4in /  995.6hPa East 2mph /  3.2km/h 2mph /  3.2km/h 82% 0in /  0.0mm 123 W/m2
12:07 42.3 °F /  5.7 °C 37.4 °F /  3 °C 29.4in /  995.6hPa SSE 0.9mph /  1.4km/h 5mph /  8km/h 83% 0in /  0.0mm 128 W/m2
12:13 42.3 °F /  5.7 °C 37.4 °F /  3 °C 29.4in /  995.6hPa ESE 2mph /  3.2km/h 6mph /  9.7km/h 83% 0in /  0.0mm 111 W/m2
12:18 42.3 °F /  5.7 °C 37.4 °F /  3 °C 29.4in /  995.6hPa East 0.9mph /  1.4km/h 3mph /  4.8km/h 83% 0in /  0.0mm 130 W/m2
12:23 42.3 °F /  5.7 °C 37.8 °F /  3.2 °C 29.4in /  995.3hPa ESE 2.9mph /  4.7km/h 7mph /  11.3km/h 84% 0in /  0.0mm 151 W/m2
12:28 42.3 °F /  5.7 °C 37.8 °F /  3.2 °C 29.4in /  995.3hPa ESE 6mph /  9.7km/h 6mph /  9.7km/h 84% 0in /  0.0mm 134 W/m2
12:33 42.1 °F /  5.6 °C 37.6 °F /  3.1 °C 29.4in /  995.3hPa ESE 6mph /  9.7km/h 7mph /  11.3km/h 84% 0in /  0.0mm 120 W/m2
12:38 42.3 °F /  5.7 °C 37.8 °F /  3.2 °C 29.4in /  995.3hPa Calm   6mph /  9.7km/h 84% 0in /  0.0mm 104 W/m2
12:43 42.3 °F /  5.7 °C 37.8 °F /  3.2 °C 29.4in /  994.9hPa SE 0.9mph /  1.4km/h 4mph /  6.4km/h 84% 0in /  0.0mm 79 W/m2
12:48 42.1 °F /  5.6 °C 37.6 °F /  3.1 °C 29.4in /  994.9hPa Calm   4mph /  6.4km/h 84% 0in /  0.0mm 49 W/m2
12:53 42.1 °F /  5.6 °C 37.6 °F /  3.1 °C 29.4in /  994.9hPa ENE 2mph /  3.2km/h 3mph /  4.8km/h 84% 0in /  0.0mm 113 W/m2
12:58 42.1 °F /  5.6 °C 37.6 °F /  3.1 °C 29.4in /  994.6hPa East 2.9mph /  4.7km/h 4mph /  6.4km/h 84% 0in /  0.0mm 139 W/m2
13:03 42.3 °F /  5.7 °C 37.8 °F /  3.2 °C 29.4in /  994.6hPa East 0.9mph /  1.4km/h 4mph /  6.4km/h 84% 0in /  0.0mm 123 W/m2
13:08 42.3 °F /  5.7 °C 37.4 °F /  3 °C 29.4in /  994.2hPa ESE 2.9mph /  4.7km/h 8mph /  12.9km/h 83% 0in /  0.0mm 98 W/m2
13:13 42.3 °F /  5.7 °C 37.4 °F /  3 °C 29.4in /  994.2hPa East 4mph /  6.4km/h 4mph /  6.4km/h 83% 0in /  0.0mm 88 W/m2
13:18 42.3 °F /  5.7 °C 37.4 °F /  3 °C 29.4in /  994.2hPa ENE 0.9mph /  1.4km/h 8mph /  12.9km/h 83% 0in /  0.0mm 83 W/m2
13:23 42.3 °F /  5.7 °C 37.4 °F /  3 °C 29.4in /  993.9hPa ENE 2.9mph /  4.7km/h 6mph /  9.7km/h 83% 0in /  0.0mm 102 W/m2
13:28 42.1 °F /  5.6 °C 37.2 °F /  2.9 °C 29.4in /  993.9hPa NE 2.9mph /  4.7km/h 9mph /  14.5km/h 83% 0in /  0.0mm 95 W/m2
13:33 42.1 °F /  5.6 °C 37.6 °F /  3.1 °C 29.4in /  993.9hPa East 2mph /  3.2km/h 6mph /  9.7km/h 84% 0in /  0.0mm 72 W/m2
13:38 41.9 °F /  5.5 °C 37 °F /  2.8 °C 29.4in /  993.9hPa ESE 2.9mph /  4.7km/h 9mph /  14.5km/h 83% 0in /  0.0mm 46 W/m2
13:43 41.5 °F /  5.3 °C 37 °F /  2.8 °C 29.3in /  993.6hPa East 6.9mph /  11.1km/h 10mph /  16.1km/h 84% 0in /  0.0mm 65 W/m2
13:48 41.4 °F /  5.2 °C 36.9 °F /  2.7 °C 29.3in /  993.6hPa East 6mph /  9.7km/h 8mph /  12.9km/h 84% 0in /  0.0mm 56 W/m2
13:53 41.4 °F /  5.2 °C 37.2 °F /  2.9 °C 29.3in /  993.6hPa ESE 6mph /  9.7km/h 6mph /  9.7km/h 85% 0in /  0.0mm 67 W/m2
13:58 41.4 °F /  5.2 °C 37.2 °F /  2.9 °C 29.3in /  993.6hPa ESE 2.9mph /  4.7km/h 7mph /  11.3km/h 85% 0in /  0.0mm 95 W/m2
14:03 41.4 °F /  5.2 °C 37.2 °F /  2.9 °C 29.3in /  993.6hPa ENE 0.9mph /  1.4km/h 8mph /  12.9km/h 85% 0in /  0.0mm 70 W/m2
14:08 41.2 °F /  5.1 °C 37 °F /  2.8 °C 29.3in /  993.2hPa ESE 2mph /  3.2km/h 10mph /  16.1km/h 85% 0in /  0.0mm 53 W/m2
14:13 41.2 °F /  5.1 °C 37 °F /  2.8 °C 29.3in /  993.2hPa East 4mph /  6.4km/h 8mph /  12.9km/h 85% 0in /  0.0mm 47 W/m2
14:18 41.2 °F /  5.1 °C 37 °F /  2.8 °C 29.3in /  992.9hPa East 4mph /  6.4km/h 7mph /  11.3km/h 85% 0in /  0.0mm 42 W/m2
14:23 41.2 °F /  5.1 °C 37.4 °F /  3 °C 29.3in /  992.9hPa East 2mph /  3.2km/h 7mph /  11.3km/h 86% 0in /  0.0mm 39 W/m2
14:28 41 °F /  5 °C 37.2 °F /  2.9 °C 29.3in /  992.9hPa East 6.9mph /  11.1km/h 7mph /  11.3km/h 86% 0in /  0.0mm 33 W/m2
14:33 40.8 °F /  4.9 °C 37.2 °F /  2.9 °C 29.3in /  992.9hPa SSE 0.9mph /  1.4km/h 4mph /  6.4km/h 87% 0in /  0.0mm 32 W/m2
14:38 40.6 °F /  4.8 °C 37 °F /  2.8 °C 29.3in /  992.9hPa East 2mph /  3.2km/h 6mph /  9.7km/h 87% 0in /  0.0mm 37 W/m2
14:43 40.5 °F /  4.7 °C 37.2 °F /  2.9 °C 29.3in /  992.5hPa East 2mph /  3.2km/h 4mph /  6.4km/h 88% 0in /  0.0mm 28 W/m2
14:48 40.3 °F /  4.6 °C 37.2 °F /  2.9 °C 29.3in /  992.5hPa East 2.9mph /  4.7km/h 4mph /  6.4km/h 89% 0in /  0.0mm 25 W/m2
14:53 40.3 °F /  4.6 °C 37.2 °F /  2.9 °C 29.3in /  992.5hPa East 2mph /  3.2km/h 4mph /  6.4km/h 89% 0in /  0.0mm 32 W/m2
14:58 40.3 °F /  4.6 °C 37.6 °F /  3.1 °C 29.3in /  992.5hPa SE 2mph /  3.2km/h 7mph /  11.3km/h 90% 0in /  0.0mm 42 W/m2
15:03 40.1 °F /  4.5 °C 37.4 °F /  3 °C 29.3in /  992.5hPa ESE 0.9mph /  1.4km/h 4mph /  6.4km/h 90% 0in /  0.0mm 28 W/m2
15:08 39.9 °F /  4.4 °C 37.6 °F /  3.1 °C 29.3in /  992.2hPa ESE 2mph /  3.2km/h 7mph /  11.3km/h 91% 0.01in /  0.2mm 32 W/m2
15:13 39.7 °F /  4.3 °C 37 °F /  2.8 °C 29.3in /  992.2hPa ESE 0.9mph /  1.4km/h 7mph /  11.3km/h 90% 0.01in /  0.2mm 23 W/m2
15:18 39.4 °F /  4.1 °C 36.7 °F /  2.6 °C 29.3in /  992.2hPa ESE 2mph /  3.2km/h 8mph /  12.9km/h 90% 0.02in /  0.5mm 21 W/m2
15:23 39.2 °F /  4 °C 36.9 °F /  2.7 °C 29.3in /  991.9hPa ESE 4mph /  6.4km/h 4mph /  6.4km/h 91% 0.02in /  0.5mm 23 W/m2
15:28 38.8 °F /  3.8 °C 36.5 °F /  2.5 °C 29.3in /  991.9hPa ESE 0.9mph /  1.4km/h 8mph /  12.9km/h 91% 0.02in /  0.5mm 19 W/m2
15:33 38.7 °F /  3.7 °C 36.3 °F /  2.4 °C 29.3in /  991.9hPa ESE 2.9mph /  4.7km/h 7mph /  11.3km/h 91% 0.03in /  0.8mm 25 W/m2
15:38 38.3 °F /  3.5 °C 36.1 °F /  2.3 °C 29.3in /  991.9hPa ESE 2.9mph /  4.7km/h 9mph /  14.5km/h 92% 0.03in /  0.8mm 23 W/m2
15:43 38.1 °F /  3.4 °C 36 °F /  2.2 °C 29.3in /  991.9hPa East 0.9mph /  1.4km/h 8mph /  12.9km/h 92% 0.04in /  1.0mm 23 W/m2
15:48 37.9 °F /  3.3 °C 36.1 °F /  2.3 °C 29.3in /  991.9hPa ESE 2mph /  3.2km/h 9mph /  14.5km/h 93% 0.05in /  1.3mm 21 W/m2
15:53 37.8 °F /  3.2 °C 36 °F /  2.2 °C 29.3in /  991.9hPa East 0.9mph /  1.4km/h 7mph /  11.3km/h 93% 0.05in /  1.3mm 18 W/m2
15:58 37.8 °F /  3.2 °C 36 °F /  2.2 °C 29.3in /  991.9hPa Calm   6mph /  9.7km/h 93% 0.06in /  1.5mm 12 W/m2
16:03 37.8 °F /  3.2 °C 36 °F /  2.2 °C 29.3in /  991.9hPa SE 2.9mph /  4.7km/h 3mph /  4.8km/h 93% 0.06in /  1.5mm 11 W/m2
16:08 37.8 °F /  3.2 °C 36.1 °F /  2.3 °C 29.3in /  991.9hPa ENE 4mph /  6.4km/h 7mph /  11.3km/h 94% 0.05in /  1.3mm 11 W/m2
16:13 37.6 °F /  3.1 °C 36 °F /  2.2 °C 29.3in /  991.9hPa East 2.9mph /  4.7km/h 5mph /  8km/h 94% 0.05in /  1.3mm 14 W/m2
16:18 37.6 °F /  3.1 °C 36 °F /  2.2 °C 29.3in /  991.9hPa East 2mph /  3.2km/h 4mph /  6.4km/h 94% 0.04in /  1.0mm 12 W/m2
16:23 37.6 °F /  3.1 °C 36 °F /  2.2 °C 29.3in /  991.9hPa ESE 2.9mph /  4.7km/h 7mph /  11.3km/h 94% 0.03in /  0.8mm 14 W/m2
16:28 37.4 °F /  3 °C 35.8 °F /  2.1 °C 29.3in /  991.9hPa ESE 2.9mph /  4.7km/h 8mph /  12.9km/h 94% 0.03in /  0.8mm 12 W/m2
16:33 37.2 °F /  2.9 °C 35.6 °F /  2 °C 29.3in /  991.9hPa ESE 2mph /  3.2km/h 6mph /  9.7km/h 94% 0.03in /  0.8mm 12 W/m2
16:38 37 °F /  2.8 °C 35.4 °F /  1.9 °C 29.3in /  991.9hPa NNE 2.9mph /  4.7km/h 6mph /  9.7km/h 94% 0.03in /  0.8mm 14 W/m2
16:43 37 °F /  2.8 °C 35.4 °F /  1.9 °C 29.3in /  991.5hPa ENE 2.9mph /  4.7km/h 8mph /  12.9km/h 94% 0.02in /  0.5mm 18 W/m2
16:48 37 °F /  2.8 °C 35.4 °F /  1.9 °C 29.3in /  991.5hPa SSE 6mph /  9.7km/h 7mph /  11.3km/h 94% 0.02in /  0.5mm 23 W/m2
16:53 36.9 °F /  2.7 °C 35.2 °F /  1.8 °C 29.3in /  991.5hPa East 0.9mph /  1.4km/h 6mph /  9.7km/h 94% 0.02in /  0.5mm 12 W/m2
16:58 36.9 °F /  2.7 °C 35.2 °F /  1.8 °C 29.3in /  991.5hPa East 2mph /  3.2km/h 4mph /  6.4km/h 94% 0.01in /  0.2mm 7 W/m2
17:03 36.9 °F /  2.7 °C 35.6 °F /  2 °C 29.3in /  991.5hPa East 4mph /  6.4km/h 7mph /  11.3km/h 95% 0.01in /  0.2mm 0 W/m2
17:08 36.7 °F /  2.6 °C 35.4 °F /  1.9 °C 29.3in /  991.5hPa ESE 0.9mph /  1.4km/h 7mph /  11.3km/h 95% 0.02in /  0.5mm 0 W/m2
17:13 36.7 °F /  2.6 °C 35.4 °F /  1.9 °C 29.3in /  991.5hPa SE 2.9mph /  4.7km/h 7mph /  11.3km/h 95% 0.02in /  0.5mm 0 W/m2
17:18 36.7 °F /  2.6 °C 35.4 °F /  1.9 °C 29.3in /  991.5hPa Calm   4mph /  6.4km/h 95% 0.02in /  0.5mm 0 W/m2
17:23 36.7 °F /  2.6 °C 35.4 °F /  1.9 °C 29.3in /  991.5hPa East 7mph /  11.3km/h 7mph /  11.3km/h 95% 0.02in /  0.5mm 0 W/m2
17:28 36.3 °F /  2.4 °C 35.1 °F /  1.7 °C 29.3in /  991.5hPa ESE 2mph /  3.2km/h 7mph /  11.3km/h 95% 0.02in /  0.5mm 0 W/m2
17:33 36.3 °F /  2.4 °C 35.1 °F /  1.7 °C 29.3in /  991.5hPa Calm   3mph /  4.8km/h 95% 0.01in /  0.2mm 0 W/m2
17:38 36.3 °F /  2.4 °C 35.1 °F /  1.7 °C 29.3in /  991.5hPa ESE 0.9mph /  1.4km/h 7mph /  11.3km/h 95% 0.02in /  0.5mm 0 W/m2
17:43 36.3 °F /  2.4 °C 35.1 °F /  1.7 °C 29.3in /  991.5hPa ENE 0.9mph /  1.4km/h 1mph /  1.6km/h 95% 0.02in /  0.5mm 0 W/m2
17:48 36.3 °F /  2.4 °C 35.1 °F /  1.7 °C 29.3in /  991.5hPa Calm   1mph /  1.6km/h 95% 0.02in /  0.5mm 0 W/m2
17:53 36.3 °F /  2.4 °C 35.1 °F /  1.7 °C 29.3in /  991.5hPa Calm     95% 0.02in /  0.5mm 0 W/m2
17:58 36.5 °F /  2.5 °C 35.2 °F /  1.8 °C 29.3in /  991.5hPa Calm     95% 0.02in /  0.5mm 0 W/m2
18:03 36.5 °F /  2.5 °C 35.2 °F /  1.8 °C 29.3in /  991.5hPa Calm     95% 0.02in /  0.5mm 0 W/m2
18:08 36.5 °F /  2.5 °C 35.2 °F /  1.8 °C 29.3in /  991.2hPa ENE 0.9mph /  1.4km/h 2mph /  3.2km/h 95% 0.01in /  0.2mm 0 W/m2
18:13 36.5 °F /  2.5 °C 35.2 °F /  1.8 °C 29.3in /  991.5hPa Calm   2mph /  3.2km/h 95% 0.02in /  0.5mm 0 W/m2
18:18 36.5 °F /  2.5 °C 35.2 °F /  1.8 °C 29.3in /  991.5hPa Calm   1mph /  1.6km/h 95% 0.02in /  0.5mm 0 W/m2
18:23 36.3 °F /  2.4 °C 35.1 °F /  1.7 °C 29.3in /  991.2hPa Calm   2mph /  3.2km/h 95% 0.04in /  1.0mm 0 W/m2
18:28 36.1 °F /  2.3 °C 34.9 °F /  1.6 °C 29.3in /  991.2hPa ESE 0.9mph /  1.4km/h 2mph /  3.2km/h 95% 0.05in /  1.3mm 0 W/m2
18:33 36.1 °F /  2.3 °C 34.9 °F /  1.6 °C 29.3in /  991.2hPa Calm   2mph /  3.2km/h 95% 0.06in /  1.5mm 0 W/m2
18:38 36.1 °F /  2.3 °C 34.9 °F /  1.6 °C 29.3in /  991.2hPa Calm   1mph /  1.6km/h 95% 0.06in /  1.5mm 0 W/m2
18:43 36 °F /  2.2 °C 34.7 °F /  1.5 °C 29.3in /  991.2hPa Calm   2mph /  3.2km/h 95% 0.06in /  1.5mm 0 W/m2
18:48 36 °F /  2.2 °C 34.7 °F /  1.5 °C 29.3in /  991.2hPa ENE 0.9mph /  1.4km/h 1mph /  1.6km/h 95% 0.06in /  1.5mm 0 W/m2
18:53 36 °F /  2.2 °C 34.7 °F /  1.5 °C 29.3in /  990.9hPa Calm   2mph /  3.2km/h 95% 0.06in /  1.5mm 0 W/m2
18:58 36 °F /  2.2 °C 34.7 °F /  1.5 °C 29.3in /  990.9hPa Calm   1mph /  1.6km/h 95% 0.07in /  1.8mm 0 W/m2
19:03 36 °F /  2.2 °C 34.7 °F /  1.5 °C 29.3in /  990.9hPa Calm     95% 0.07in /  1.8mm 0 W/m2
19:08 35.8 °F /  2.1 °C 34.5 °F /  1.4 °C 29.3in /  990.9hPa Calm   1mph /  1.6km/h 95% 0.07in /  1.8mm 0 W/m2
19:13 36 °F /  2.2 °C 34.7 °F /  1.5 °C 29.3in /  990.9hPa Calm     95% 0.06in /  1.5mm 0 W/m2
19:18 35.8 °F /  2.1 °C 34.5 °F /  1.4 °C 29.3in /  990.9hPa Calm     95% 0.06in /  1.5mm 0 W/m2
19:23 36 °F /  2.2 °C 34.7 °F /  1.5 °C 29.3in /  990.9hPa ENE 1mph /  1.6km/h 1mph /  1.6km/h 95% 0.04in /  1.0mm 0 W/m2
19:28 35.8 °F /  2.1 °C 34.5 °F /  1.4 °C 29.3in /  990.9hPa Calm   2mph /  3.2km/h 95% 0.04in /  1.0mm 0 W/m2
19:34 35.8 °F /  2.1 °C 34.5 °F /  1.4 °C 29.3in /  990.9hPa WNW 2mph /  3.2km/h 2mph /  3.2km/h 95% 0.03in /  0.8mm 0 W/m2
19:39 35.8 °F /  2.1 °C 34.7 °F /  1.5 °C 29.3in /  990.9hPa Calm   1mph /  1.6km/h 96% 0.02in /  0.5mm 0 W/m2
19:44 35.8 °F /  2.1 °C 34.7 °F /  1.5 °C 29.3in /  990.9hPa Calm     96% 0.02in /  0.5mm 0 W/m2
19:49 35.8 °F /  2.1 °C 34.5 °F /  1.4 °C 29.3in /  990.9hPa Calm     95% 0.02in /  0.5mm 0 W/m2
19:54 35.8 °F /  2.1 °C 34.5 °F /  1.4 °C 29.3in /  990.9hPa Calm     95% 0.03in /  0.8mm 0 W/m2
19:59 35.8 °F /  2.1 °C 34.5 °F /  1.4 °C 29.3in /  990.9hPa Calm     95% 0.03in /  0.8mm 0 W/m2
20:04 35.8 °F /  2.1 °C 34.7 °F /  1.5 °C 29.3in /  990.9hPa Calm   1mph /  1.6km/h 96% 0.03in /  0.8mm 0 W/m2
20:09 35.8 °F /  2.1 °C 34.7 °F /  1.5 °C 29.3in /  990.9hPa Calm     96% 0.03in /  0.8mm 0 W/m2
20:14 35.8 °F /  2.1 °C 34.7 °F /  1.5 °C 29.3in /  990.9hPa Calm   1mph /  1.6km/h 96% 0.04in /  1.0mm 0 W/m2
20:19 35.8 °F /  2.1 °C 34.7 °F /  1.5 °C 29.3in /  990.9hPa Calm     96% 0.04in /  1.0mm 0 W/m2
20:24 35.8 °F /  2.1 °C 34.7 °F /  1.5 °C 29.3in /  990.9hPa Calm     96% 0.04in /  1.0mm 0 W/m2
20:29 35.8 °F /  2.1 °C 34.7 °F /  1.5 °C 29.3in /  990.9hPa Calm     96% 0.04in /  1.0mm 0 W/m2
20:34 35.8 °F /  2.1 °C 34.7 °F /  1.5 °C 29.3in /  990.9hPa Calm     96% 0.04in /  1.0mm 0 W/m2
20:39 35.8 °F /  2.1 °C 34.7 °F /  1.5 °C 29.3in /  990.9hPa Calm     96% 0.04in /  1.0mm 0 W/m2
20:44 35.6 °F /  2 °C 34.5 °F /  1.4 °C 29.3in /  990.9hPa Calm     96% 0.04in /  1.0mm 0 W/m2
20:49 35.6 °F /  2 °C 34.5 °F /  1.4 °C 29.3in /  990.9hPa Calm     96% 0.04in /  1.0mm 0 W/m2
20:54 35.4 °F /  1.9 °C 34.3 °F /  1.3 °C 29.3in /  990.9hPa Calm     96% 0.04in /  1.0mm 0 W/m2
20:59 35.4 °F /  1.9 °C 34.3 °F /  1.3 °C 29.3in /  990.9hPa Calm     96% 0.03in /  0.8mm 0 W/m2
21:04 35.4 °F /  1.9 °C 34.3 °F /  1.3 °C 29.3in /  990.9hPa NW 2mph /  3.2km/h 4mph /  6.4km/h 96% 0.03in /  0.8mm 0 W/m2
21:09 35.2 °F /  1.8 °C 34 °F /  1.1 °C 29.3in /  990.9hPa WNW 2mph /  3.2km/h 4mph /  6.4km/h 95% 0.04in /  1.0mm 0 W/m2
21:14 35.1 °F /  1.7 °C 33.8 °F /  1 °C 29.3in /  990.9hPa WSW 0.9mph /  1.4km/h 3mph /  4.8km/h 95% 0.03in /  0.8mm 0 W/m2
21:19 35.1 °F /  1.7 °C 33.8 °F /  1 °C 29.3in /  990.9hPa West 0.9mph /  1.4km/h 3mph /  4.8km/h 95% 0.04in /  1.0mm 0 W/m2
Juneau County Weather
Compliments of Weather Underground - 4 mb